Time;durP1;ratioP1;P1;durP2;ratioP2;P2;SDS_P1;SDS_P2;PMS_P1;PMS_P2;Temp;Humidity;BMP_temperature;BMP_pressure;BME280_temperature;BME280_humidity;BME280_pressure;Samples;Min_cycle;Max_cycle;Signal;HPM_P1;HPM_P2
2024/03/01 00:01:33;;;;;;;33.67;17.73;;;4.10;99.90;;;;;;5100416;28;20023;-93
2024/03/01 00:03:59;;;;;;;32.67;18.23;;;4.10;99.90;;;;;;5099688;28;20024;-94
2024/03/01 00:06:24;;;;;;;33.65;17.58;;;4.10;99.90;;;;;;5098513;28;20048;-94
2024/03/01 00:08:50;;;;;;;30.30;17.08;;;4.10;99.90;;;;;;5098683;28;20031;-94
2024/03/01 00:11:16;;;;;;;28.83;16.98;;;4.10;99.90;;;;;;5099204;28;20475;-93
2024/03/01 00:13:42;;;;;;;33.20;16.70;;;4.10;99.90;;;;;;5081963;28;20076;-94
2024/03/01 00:16:08;;;;;;;31.08;16.85;;;4.10;99.90;;;;;;5099254;28;20019;-92
2024/03/01 00:18:34;;;;;;;30.30;18.70;;;3.90;99.90;;;;;;5098458;28;20789;-93
2024/03/01 00:21:00;;;;;;;32.53;15.70;;;3.80;99.90;;;;;;5099589;28;20042;-93
2024/03/01 00:23:28;;;;;;;33.63;15.57;;;3.80;99.90;;;;;;5098527;28;20055;-92
2024/03/01 00:25:54;;;;;;;31.50;17.00;;;3.90;99.90;;;;;;5099468;28;20030;-93
2024/03/01 00:28:20;;;;;;;30.20;16.27;;;3.90;99.90;;;;;;5099609;28;20020;-93
2024/03/01 00:30:46;;;;;;;31.13;15.52;;;3.90;99.90;;;;;;5099779;28;20051;-94
2024/03/01 00:33:12;;;;;;;30.85;15.88;;;3.90;99.90;;;;;;5099376;28;20020;-93
2024/03/01 00:35:38;;;;;;;32.42;17.77;;;4.00;99.90;;;;;;5099739;28;20056;-93
2024/03/01 00:38:04;;;;;;;32.38;17.25;;;4.00;99.90;;;;;;5099630;28;20028;-93
2024/03/01 00:40:29;;;;;;;27.25;15.25;;;4.00;99.90;;;;;;5093761;28;20028;-93
2024/03/01 00:42:55;;;;;;;36.95;17.90;;;4.00;99.90;;;;;;5095846;28;20502;-95
2024/03/01 00:45:21;;;;;;;31.80;17.13;;;4.00;99.90;;;;;;5100753;28;20046;-93
2024/03/01 00:47:49;;;;;;;30.45;15.45;;;4.10;99.90;;;;;;5100749;28;20008;-93
2024/03/01 00:50:16;;;;;;;33.30;16.10;;;4.10;99.90;;;;;;5099927;28;20126;-93
2024/03/01 00:52:42;;;;;;;33.80;17.35;;;4.20;99.90;;;;;;5096077;28;20028;-93
2024/03/01 00:55:08;;;;;;;33.28;16.20;;;4.20;99.90;;;;;;5081503;28;20054;-94
2024/03/01 00:57:34;;;;;;;33.45;16.15;;;4.20;99.90;;;;;;5099759;28;20031;-93
2024/03/01 00:59:59;;;;;;;38.17;16.33;;;4.20;99.90;;;;;;5098570;28;20020;-93
2024/03/01 01:02:25;;;;;;;35.10;16.88;;;4.20;99.90;;;;;;5073650;28;20036;-93
2024/03/01 01:04:51;;;;;;;34.22;17.23;;;4.30;99.90;;;;;;5099430;28;20021;-95
2024/03/01 01:07:17;;;;;;;36.33;17.58;;;4.20;99.90;;;;;;5099297;28;20023;-94
2024/03/01 01:09:42;;;;;;;32.50;18.27;;;4.30;99.90;;;;;;5099607;28;20024;-95
2024/03/01 01:12:08;;;;;;;33.85;16.50;;;4.30;99.90;;;;;;5100014;28;20046;-92
2024/03/01 01:14:34;;;;;;;28.02;15.45;;;4.30;99.90;;;;;;5080993;28;20021;-92
2024/03/01 01:17:01;;;;;;;35.05;16.08;;;4.30;99.90;;;;;;5099449;28;20029;-94
2024/03/01 01:19:26;;;;;;;36.67;15.68;;;4.20;99.90;;;;;;5103927;28;20098;-92
2024/03/01 01:21:52;;;;;;;32.25;16.38;;;4.10;99.90;;;;;;5103207;28;20028;-93
2024/03/01 01:24:18;;;;;;;32.58;15.95;;;4.10;99.90;;;;;;5102633;28;20031;-93
2024/03/01 01:26:43;;;;;;;28.08;15.70;;;4.10;99.90;;;;;;5086677;28;20024;-93
2024/03/01 01:29:09;;;;;;;32.03;16.65;;;4.20;99.90;;;;;;5103492;28;20027;-93
2024/03/01 01:31:35;;;;;;;34.42;17.55;;;4.10;99.90;;;;;;5103576;28;20028;-94
2024/03/01 01:34:01;;;;;;;34.72;16.98;;;4.10;99.90;;;;;;5103612;28;20024;-94
2024/03/01 01:36:26;;;;;;;32.10;15.52;;;4.10;99.90;;;;;;5086193;28;20083;-93
2024/03/01 01:38:52;;;;;;;36.10;17.73;;;4.20;99.90;;;;;;5103882;28;20115;-93
2024/03/01 01:41:18;;;;;;;27.02;16.17;;;4.10;99.90;;;;;;5104514;28;20067;-93
2024/03/01 01:43:43;;;;;;;27.27;15.27;;;4.10;99.90;;;;;;5082101;28;20028;-95
2024/03/01 01:46:14;;;;;;;35.40;16.33;;;4.10;99.90;;;;;;5101902;28;20024;-93
2024/03/01 01:48:41;;;;;;;33.42;16.60;;;4.10;99.90;;;;;;5098484;28;20020;-92
2024/03/01 01:51:07;;;;;;;29.98;15.45;;;4.00;99.90;;;;;;5103778;28;20020;-93
2024/03/01 01:53:34;;;;;;;30.77;17.00;;;4.00;99.90;;;;;;5086348;28;20048;-94
2024/03/01 01:56:01;;;;;;;31.20;15.70;;;4.00;99.90;;;;;;5104699;28;20027;-93
2024/03/01 01:58:28;;;;;;;31.90;15.90;;;4.00;99.90;;;;;;5103728;28;20066;-94
2024/03/01 02:00:55;;;;;;;30.33;16.20;;;3.90;99.90;;;;;;5094971;28;20070;-91
2024/03/01 02:03:22;;;;;;;31.75;16.13;;;3.90;99.90;;;;;;5103072;28;20024;-94
2024/03/01 02:05:48;;;;;;;31.58;15.43;;;3.90;99.90;;;;;;5104058;28;20509;-92
2024/03/01 02:08:14;;;;;;;32.63;16.95;;;3.90;99.90;;;;;;5101876;28;20020;-93
2024/03/01 02:10:40;;;;;;;30.35;16.35;;;4.00;99.90;;;;;;5103311;28;20487;-94
2024/03/01 02:13:17;;;;;;;28.90;16.02;;;4.00;99.90;;;;;;5102509;28;20019;-93
2024/03/01 02:15:43;;;;;;;28.00;15.05;;;4.00;99.90;;;;;;5086072;28;20040;-92
2024/03/01 02:18:08;;;;;;;31.70;16.00;;;4.00;99.90;;;;;;5103328;28;20024;-93
2024/03/01 02:20:38;;;;;;;32.55;16.67;;;4.00;99.90;;;;;;5098323;28;20078;-93
2024/03/01 02:23:10;;;;;;;33.63;16.85;;;4.00;99.90;;;;;;5095929;28;20029;-93
2024/03/01 02:25:36;;;;;;;29.30;13.98;;;4.00;99.90;;;;;;5083561;28;20171;-94
2024/03/01 02:28:02;;;;;;;32.28;17.00;;;4.10;99.90;;;;;;5103240;28;20020;-93
2024/03/01 02:30:28;;;;;;;32.30;15.95;;;4.10;99.90;;;;;;5099238;28;20020;-93
2024/03/01 02:32:53;;;;;;;31.85;16.13;;;4.10;99.90;;;;;;5081441;28;20051;-93
2024/03/01 02:35:19;;;;;;;30.20;16.58;;;4.10;99.90;;;;;;5102898;28;20024;-93
2024/03/01 02:37:45;;;;;;;38.58;18.48;;;4.10;99.90;;;;;;5102314;28;20028;-93
2024/03/01 02:40:12;;;;;;;33.53;17.35;;;4.20;99.90;;;;;;5102991;28;20039;-93
2024/03/01 02:42:37;;;;;;;39.35;19.33;;;4.10;99.90;;;;;;5102766;28;20150;-92
2024/03/01 02:45:03;;;;;;;32.08;16.35;;;4.20;99.90;;;;;;5101665;28;20264;-93
2024/03/01 02:47:29;;;;;;;40.42;19.45;;;4.20;99.90;;;;;;5103621;28;20016;-93
2024/03/01 02:49:55;;;;;;;38.47;19.35;;;4.30;99.90;;;;;;5103131;28;20027;-93
2024/03/01 02:52:21;;;;;;;39.67;19.42;;;4.30;99.90;;;;;;5095846;28;20024;-92
2024/03/01 02:54:47;;;;;;;38.42;18.23;;;4.30;99.90;;;;;;5103064;28;20512;-94
2024/03/01 02:57:12;;;;;;;32.83;17.02;;;4.30;99.90;;;;;;5102140;28;20032;-93
2024/03/01 02:59:38;;;;;;;37.42;16.83;;;4.40;99.90;;;;;;5101283;28;20032;-93
2024/03/01 03:02:03;;;;;;;34.88;16.50;;;4.40;99.90;;;;;;5100884;28;20027;-94
2024/03/01 03:04:29;;;;;;;35.38;16.73;;;4.40;99.90;;;;;;5083984;28;20073;-94
2024/03/01 03:06:56;;;;;;;38.85;18.92;;;4.40;99.90;;;;;;5084258;28;20032;-93
2024/03/01 03:09:22;;;;;;;38.83;18.05;;;4.40;99.90;;;;;;5101873;28;20016;-93
2024/03/01 03:11:47;;;;;;;37.63;19.50;;;4.40;99.90;;;;;;5097100;28;20066;-93
2024/03/01 03:14:13;;;;;;;37.17;19.35;;;4.40;99.90;;;;;;5101974;28;20050;-92
2024/03/01 03:16:39;;;;;;;39.42;17.13;;;4.40;99.90;;;;;;5102092;28;20028;-94
2024/03/01 03:19:04;;;;;;;36.80;18.48;;;4.40;99.90;;;;;;5100998;28;20028;-93
2024/03/01 03:21:30;;;;;;;38.63;18.45;;;4.50;99.90;;;;;;5100588;28;20031;-93
2024/03/01 03:23:55;;;;;;;30.15;18.30;;;4.40;99.90;;;;;;5100183;28;20200;-92
2024/03/01 03:26:21;;;;;;;31.40;17.15;;;4.40;99.90;;;;;;5101028;28;20024;-94
2024/03/01 03:28:47;;;;;;;32.90;16.80;;;4.40;99.90;;;;;;5100989;28;20031;-93
2024/03/01 03:31:12;;;;;;;38.47;18.00;;;4.40;99.90;;;;;;5076641;28;20016;-92
2024/03/01 03:33:38;;;;;;;37.40;17.67;;;4.40;99.90;;;;;;5101777;28;20028;-92
2024/03/01 03:36:04;;;;;;;36.30;18.73;;;4.40;99.90;;;;;;5081619;28;20510;-92
2024/03/01 03:38:30;;;;;;;41.33;20.23;;;4.40;99.90;;;;;;5100000;28;20081;-93
2024/03/01 03:40:56;;;;;;;40.60;20.13;;;4.40;99.90;;;;;;5105569;28;20456;-93
2024/03/01 03:43:21;;;;;;;34.47;18.95;;;4.40;99.90;;;;;;5100762;28;20020;-93
2024/03/01 03:45:48;;;;;;;34.13;19.08;;;4.40;99.90;;;;;;5082596;28;20050;-92
2024/03/01 03:48:13;;;;;;;40.58;19.10;;;4.40;99.90;;;;;;5101075;28;20115;-93
2024/03/01 03:50:40;;;;;;;39.88;21.55;;;4.40;99.90;;;;;;5096913;28;20041;-93
2024/03/01 03:53:05;;;;;;;45.40;24.27;;;4.50;99.90;;;;;;5082051;28;20444;-93
2024/03/01 03:55:31;;;;;;;42.88;22.75;;;4.50;99.90;;;;;;5101193;28;20035;-93
2024/03/01 03:57:57;;;;;;;46.28;22.60;;;4.50;99.90;;;;;;5082932;28;20055;-94
2024/03/01 04:00:23;;;;;;;48.35;22.23;;;4.50;99.90;;;;;;5100132;28;20047;-93
2024/03/01 04:02:49;;;;;;;52.45;24.20;;;4.50;99.90;;;;;;5100294;28;20398;-93
2024/03/01 04:05:15;;;;;;;52.22;26.17;;;4.60;99.90;;;;;;5100150;28;20020;-92
2024/03/01 04:07:40;;;;;;;48.75;24.27;;;4.60;99.90;;;;;;5082200;28;20024;-93
2024/03/01 04:10:06;;;;;;;44.63;23.27;;;4.50;99.90;;;;;;5082560;28;20083;-91
2024/03/01 04:12:32;;;;;;;38.80;24.63;;;4.50;99.90;;;;;;5082043;28;20477;-93
2024/03/01 04:14:58;;;;;;;43.30;20.38;;;4.40;99.90;;;;;;5107544;28;20028;-94
2024/03/01 04:17:24;;;;;;;39.25;18.83;;;4.40;99.90;;;;;;5097876;28;20024;-92
2024/03/01 04:19:50;;;;;;;42.75;20.17;;;4.40;99.90;;;;;;5116636;28;20039;-94
2024/03/01 04:22:16;;;;;;;42.03;20.20;;;4.40;99.90;;;;;;5109813;28;20024;-94
2024/03/01 04:24:43;;;;;;;44.53;21.45;;;4.50;99.90;;;;;;5115922;28;20077;-94
2024/03/01 04:27:09;;;;;;;53.30;22.48;;;4.50;99.90;;;;;;5116858;28;20008;-94
2024/03/01 04:29:35;;;;;;;49.35;22.83;;;4.50;99.90;;;;;;5115899;28;20047;-94
2024/03/01 04:32:01;;;;;;;42.28;22.33;;;4.60;99.90;;;;;;5106768;28;20040;-93
2024/03/01 04:34:27;;;;;;;47.65;21.60;;;4.60;99.90;;;;;;5083042;28;20028;-93
2024/03/01 04:36:57;;;;;;;41.92;21.80;;;4.60;99.90;;;;;;5097002;28;20021;-94
2024/03/01 04:39:26;;;;;;;50.47;23.30;;;4.60;99.90;;;;;;5098398;28;20020;-93
2024/03/01 04:41:52;;;;;;;48.10;23.10;;;4.50;99.90;;;;;;5098223;28;20028;-91
2024/03/01 04:44:18;;;;;;;53.45;24.98;;;4.50;99.90;;;;;;5100192;28;20070;-93
2024/03/01 04:46:43;;;;;;;51.70;24.42;;;4.50;99.90;;;;;;5102203;28;20024;-93
2024/03/01 04:49:09;;;;;;;57.08;26.20;;;4.50;99.90;;;;;;5101195;28;20016;-94
2024/03/01 04:51:35;;;;;;;54.67;25.52;;;4.50;99.90;;;;;;5099854;28;20107;-94
2024/03/01 04:54:00;;;;;;;60.20;25.40;;;4.40;99.90;;;;;;5082067;28;20062;-93
2024/03/01 04:56:26;;;;;;;63.63;26.75;;;4.50;99.90;;;;;;5081387;28;20028;-94
2024/03/01 04:58:52;;;;;;;59.90;27.17;;;4.40;99.90;;;;;;5099595;28;20020;-94
2024/03/01 05:01:18;;;;;;;58.70;28.25;;;4.40;99.90;;;;;;5082655;28;20024;-93
2024/03/01 05:03:44;;;;;;;62.83;27.38;;;4.50;99.90;;;;;;5100570;28;20550;-94
2024/03/01 05:06:10;;;;;;;58.63;28.23;;;4.50;99.90;;;;;;5082492;28;20032;-93
2024/03/01 05:08:35;;;;;;;51.60;28.95;;;4.60;99.90;;;;;;5099399;28;20401;-94
2024/03/01 05:11:02;;;;;;;65.43;25.88;;;4.60;99.90;;;;;;5107950;28;20058;-93
2024/03/01 05:13:28;;;;;;;62.67;26.02;;;4.70;99.90;;;;;;5103964;28;20032;-94
2024/03/01 05:15:54;;;;;;;50.42;26.42;;;4.70;99.90;;;;;;5106028;28;20077;-94
2024/03/01 05:18:20;;;;;;;57.58;25.67;;;4.70;99.90;;;;;;5101677;28;20043;-94
2024/03/01 05:20:46;;;;;;;56.65;27.15;;;4.70;99.90;;;;;;5085149;28;20040;-93
2024/03/01 05:23:12;;;;;;;54.53;26.30;;;4.80;99.90;;;;;;5109030;28;20043;-93
2024/03/01 05:25:38;;;;;;;52.53;23.17;;;4.80;99.90;;;;;;5102203;28;20027;-94
2024/03/01 05:28:04;;;;;;;51.92;23.20;;;4.90;99.90;;;;;;5087222;28;20031;-93
2024/03/01 05:30:35;;;;;;;54.80;24.95;;;4.90;99.90;;;;;;5076488;28;20046;-95
2024/03/01 05:33:01;;;;;;;54.85;23.08;;;4.90;99.90;;;;;;5098993;28;20055;-93
2024/03/01 05:35:27;;;;;;;58.13;24.58;;;4.90;99.90;;;;;;5081567;28;20044;-93
2024/03/01 05:37:56;;;;;;;47.83;24.25;;;5.00;99.90;;;;;;5098437;28;20063;-93
2024/03/01 05:40:22;;;;;;;51.75;22.63;;;5.00;99.90;;;;;;5100037;28;20058;-92
2024/03/01 05:42:48;;;;;;;50.58;21.95;;;5.00;99.90;;;;;;5082208;28;20028;-94
2024/03/01 05:45:14;;;;;;;51.53;23.23;;;5.00;99.90;;;;;;5102452;28;20016;-92
2024/03/01 05:47:44;;;;;;;48.95;25.73;;;5.00;99.90;;;;;;5099307;28;20016;-93
2024/03/01 05:50:14;;;;;;;50.10;25.05;;;5.00;99.90;;;;;;5087640;28;20021;-93
2024/03/01 05:52:42;;;;;;;44.33;22.27;;;5.10;99.90;;;;;;5100966;28;20024;-93
2024/03/01 05:55:09;;;;;;;53.42;24.10;;;5.00;99.90;;;;;;5082157;28;20020;-94
2024/03/01 05:57:35;;;;;;;45.90;22.90;;;5.10;99.90;;;;;;5099982;28;20104;-94
2024/03/01 06:00:17;;;;;;;48.25;21.88;;;5.10;99.90;;;;;;5098456;28;20028;-94
2024/03/01 06:02:46;;;;;;;54.00;25.38;;;5.00;99.90;;;;;;5098141;28;20025;-93
2024/03/01 06:05:13;;;;;;;56.92;24.40;;;5.10;99.90;;;;;;5102241;28;20032;-93
2024/03/01 06:07:39;;;;;;;54.72;25.48;;;5.00;99.90;;;;;;5103847;28;20020;-94
2024/03/01 06:10:05;;;;;;;55.92;26.90;;;5.10;99.90;;;;;;5095940;28;20016;-92
2024/03/01 06:12:30;;;;;;;47.72;26.23;;;5.10;99.90;;;;;;5090757;28;20032;-93
2024/03/01 06:14:56;;;;;;;51.95;25.25;;;5.20;99.90;;;;;;5093076;28;20027;-93
2024/03/01 06:17:22;;;;;;;51.03;25.23;;;5.20;99.90;;;;;;5100559;28;20036;-93
2024/03/01 06:19:47;;;;;;;48.78;26.95;;;5.20;99.90;;;;;;5101659;28;20398;-91
2024/03/01 06:22:13;;;;;;;54.17;24.15;;;5.20;99.90;;;;;;5096150;28;20067;-94
2024/03/01 06:24:39;;;;;;;49.17;24.33;;;5.20;99.90;;;;;;5103375;28;20024;-92
2024/03/01 06:27:05;;;;;;;51.72;24.42;;;5.20;99.90;;;;;;5076124;28;20027;-92
2024/03/01 06:29:30;;;;;;;55.97;24.98;;;5.20;99.90;;;;;;5095287;28;20437;-93
2024/03/01 06:31:56;;;;;;;56.22;29.23;;;5.30;99.90;;;;;;5070330;28;20160;-93
2024/03/01 06:34:22;;;;;;;48.63;22.70;;;5.30;99.90;;;;;;5074133;28;20024;-91
2024/03/01 06:36:48;;;;;;;56.50;26.48;;;5.30;99.90;;;;;;5093633;28;20020;-90
2024/03/01 06:39:14;;;;;;;59.60;26.27;;;5.40;99.90;;;;;;5093412;28;20016;-93
2024/03/01 06:41:40;;;;;;;57.55;26.83;;;5.40;99.90;;;;;;5092169;28;20023;-93
2024/03/01 06:44:06;;;;;;;58.92;27.33;;;5.50;99.90;;;;;;5091980;28;20020;-91
2024/03/01 06:46:32;;;;;;;61.55;27.45;;;5.50;99.90;;;;;;5096098;28;20024;-93
2024/03/01 06:49:00;;;;;;;66.57;27.65;;;5.40;99.90;;;;;;5076943;28;20467;-94
2024/03/01 06:51:26;;;;;;;61.05;27.23;;;5.60;99.90;;;;;;5099948;28;20095;-91
2024/03/01 06:53:52;;;;;;;60.75;26.45;;;5.50;99.90;;;;;;5097732;28;20077;-91
2024/03/01 06:56:18;;;;;;;52.50;25.73;;;5.60;99.90;;;;;;5096066;28;20036;-92
2024/03/01 06:58:43;;;;;;;60.97;30.90;;;5.50;99.90;;;;;;5089782;28;20039;-93
2024/03/01 07:01:10;;;;;;;64.05;28.75;;;5.60;99.90;;;;;;5091596;28;20016;-92
2024/03/01 07:03:36;;;;;;;63.40;33.38;;;5.60;99.90;;;;;;5095914;28;20411;-92
2024/03/01 07:06:02;;;;;;;67.45;29.10;;;5.60;99.90;;;;;;5099092;28;20027;-93
2024/03/01 07:08:27;;;;;;;55.50;27.13;;;5.60;99.90;;;;;;5098852;28;20449;-92
2024/03/01 07:10:54;;;;;;;59.30;26.38;;;5.70;99.90;;;;;;5098752;28;20047;-95
2024/03/01 07:13:20;;;;;;;53.78;25.73;;;5.60;99.90;;;;;;5097661;28;20055;-91
2024/03/01 07:15:46;;;;;;;52.85;25.33;;;5.60;99.90;;;;;;5098725;28;20074;-92
2024/03/01 07:18:12;;;;;;;57.90;26.02;;;5.60;99.90;;;;;;5097099;28;20039;-92
2024/03/01 07:20:38;;;;;;;49.03;24.52;;;5.60;99.90;;;;;;5080496;28;20032;-93
2024/03/01 07:23:03;;;;;;;50.72;24.80;;;5.70;99.90;;;;;;5097843;28;20051;-92
2024/03/01 07:25:29;;;;;;;57.05;24.83;;;5.70;99.90;;;;;;5098537;28;20472;-92
2024/03/01 07:27:55;;;;;;;56.75;26.33;;;5.60;99.90;;;;;;5097356;28;20024;-92
2024/03/01 07:30:20;;;;;;;54.20;26.08;;;5.60;99.90;;;;;;5099449;28;20397;-93
2024/03/01 07:32:46;;;;;;;56.55;23.83;;;5.60;99.90;;;;;;5098891;28;20024;-92
2024/03/01 07:35:12;;;;;;;54.67;25.65;;;5.70;99.90;;;;;;5098712;28;20032;-93
2024/03/01 07:37:39;;;;;;;58.15;26.33;;;5.70;99.90;;;;;;5097667;28;20039;-92
2024/03/01 07:40:06;;;;;;;55.30;25.70;;;5.70;99.90;;;;;;5098387;28;20032;-92
2024/03/01 07:42:31;;;;;;;57.95;27.15;;;5.70;99.90;;;;;;5099699;28;20032;-92
2024/03/01 07:44:57;;;;;;;59.45;25.10;;;5.70;99.90;;;;;;5098520;28;20024;-93
2024/03/01 07:47:29;;;;;;;52.72;24.58;;;5.80;99.90;;;;;;5098529;28;20026;-93
2024/03/01 07:49:55;;;;;;;58.30;29.48;;;5.80;99.90;;;;;;5098673;28;20528;-92
2024/03/01 07:52:21;;;;;;;54.80;25.75;;;5.70;99.90;;;;;;5100443;28;20040;-92
2024/03/01 07:54:47;;;;;;;48.35;23.52;;;5.70;99.90;;;;;;5098271;28;20021;-93
2024/03/01 07:57:14;;;;;;;54.00;25.98;;;5.80;99.90;;;;;;5082464;28;20032;-92
2024/03/01 07:59:40;;;;;;;52.17;23.20;;;5.80;99.90;;;;;;5070623;28;20043;-89
2024/03/01 08:02:08;;;;;;;56.20;25.15;;;5.90;99.90;;;;;;5086936;28;20107;-90
2024/03/01 08:04:34;;;;;;;51.67;25.33;;;6.00;99.90;;;;;;5097824;28;20069;-90
2024/03/01 08:07:00;;;;;;;55.83;25.52;;;6.10;99.90;;;;;;5097717;28;20040;-92
2024/03/01 08:09:36;;;;;;;52.92;24.55;;;6.10;99.90;;;;;;5097093;28;20103;-92
2024/03/01 08:12:05;;;;;;;52.42;26.27;;;6.20;99.90;;;;;;5079455;28;20061;-93
2024/03/01 08:14:33;;;;;;;52.67;24.25;;;6.20;99.90;;;;;;5096841;28;20028;-94
2024/03/01 08:16:59;;;;;;;50.65;25.30;;;6.20;99.90;;;;;;5099054;28;20081;-93
2024/03/01 08:19:38;;;;;;;54.33;27.48;;;6.20;99.90;;;;;;5085911;28;20028;-93
2024/03/01 08:22:19;;;;;;;56.05;26.83;;;6.30;99.90;;;;;;5105096;28;20073;-93
2024/03/01 08:24:48;;;;;;;;;;;6.30;99.90;;;;;;5098489;28;20027;-92
2024/03/01 08:27:24;;;;;;;54.53;27.10;;;6.40;99.90;;;;;;5096481;28;19904;-91
2024/03/01 08:29:51;;;;;;;57.03;27.25;;;6.40;99.90;;;;;;5097134;28;20581;-92
2024/03/01 08:32:28;;;;;;;59.67;28.10;;;6.50;99.90;;;;;;5088783;28;20012;-92
2024/03/01 08:34:55;;;;;;;55.13;25.92;;;6.60;99.90;;;;;;5097245;28;20023;-93
2024/03/01 08:37:26;;;;;;;52.20;24.63;;;6.80;99.90;;;;;;5096268;28;20023;-92
2024/03/01 08:39:53;;;;;;;55.70;27.15;;;6.80;99.90;;;;;;5095622;28;20084;-92
2024/03/01 08:42:20;;;;;;;57.35;27.20;;;6.80;99.90;;;;;;5096031;28;20020;-92
2024/03/01 08:44:53;;;;;;;58.78;26.15;;;6.90;99.90;;;;;;5096509;28;20024;-92
2024/03/01 08:47:40;;;;;;;60.95;26.92;;;7.10;99.90;;;;;;5095358;28;20140;-92
2024/03/01 08:50:28;;;;;;;56.20;25.92;;;7.10;99.90;;;;;;4988895;28;20049;-92
2024/03/01 08:53:00;;;;;;;54.78;26.00;;;7.10;99.90;;;;;;5052454;28;20043;-89
2024/03/01 08:55:26;;;;;;;53.88;24.25;;;7.20;99.90;;;;;;5030220;28;20069;-91
2024/03/01 08:57:53;;;;;;;58.25;25.80;;;7.20;99.90;;;;;;5034178;28;20038;-91
2024/03/01 09:00:41;;;;;;;54.03;25.00;;;7.30;99.90;;;;;;5042209;28;20031;-92
2024/03/01 09:03:10;;;;;;;49.08;24.58;;;7.40;99.90;;;;;;5032035;28;20411;-94
2024/03/01 09:05:48;;;;;;;52.22;23.58;;;7.60;99.90;;;;;;5055960;28;20032;-89
2024/03/01 09:08:44;;;;;;;49.65;22.50;;;7.70;99.90;;;;;;5071750;28;21150;-91
2024/03/01 09:11:12;;;;;;;40.47;19.15;;;7.90;99.60;;;;;;5039103;28;20228;-92
2024/03/01 09:13:39;;;;;;;36.85;19.13;;;8.00;99.30;;;;;;5056421;28;20051;-91
2024/03/01 09:16:21;;;;;;;35.90;17.00;;;8.20;98.40;;;;;;5046196;28;20064;-93
2024/03/01 09:18:51;;;;;;;29.75;15.18;;;8.30;97.30;;;;;;5028929;28;20063;-92
2024/03/01 09:21:28;;;;;;;36.72;15.13;;;8.40;96.90;;;;;;5046245;28;20124;-90
2024/03/01 09:23:55;;;;;;;33.63;14.52;;;8.50;95.70;;;;;;5051251;28;21345;-92
2024/03/01 09:26:20;;;;;;;34.20;16.70;;;8.60;96.20;;;;;;5078447;28;20099;-92
2024/03/01 09:28:46;;;;;;;28.13;14.95;;;8.70;96.00;;;;;;5063410;28;20020;-91
2024/03/01 09:31:12;;;;;;;27.10;12.18;;;8.70;95.40;;;;;;5030746;28;20402;-92
2024/03/01 09:33:38;;;;;;;26.65;11.95;;;8.90;95.70;;;;;;5029506;28;20031;-93
2024/03/01 09:36:04;;;;;;;20.77;10.43;;;8.90;93.60;;;;;;5068179;28;20262;-93
2024/03/01 09:38:29;;;;;;;21.92;12.25;;;8.90;93.10;;;;;;5086230;28;20032;-93
2024/03/01 09:41:26;;;;;;;24.40;11.02;;;9.00;92.60;;;;;;5077122;28;20039;-91
2024/03/01 09:44:04;;;;;;;22.30;10.25;;;8.90;92.60;;;;;;5054695;28;20032;-91
2024/03/01 09:46:58;;;;;;;24.73;10.88;;;9.00;92.60;;;;;;5064943;28;20024;-91
2024/03/01 09:49:39;;;;;;;21.10;10.73;;;9.10;91.80;;;;;;5082624;28;20443;-92
2024/03/01 09:52:18;;;;;;;22.17;11.20;;;8.90;92.60;;;;;;5062100;28;20385;-93
2024/03/01 09:55:08;;;;;;;19.73;9.50;;;9.00;92.30;;;;;;5064002;28;20058;-92
2024/03/01 09:57:53;;;;;;;24.25;11.60;;;8.90;92.60;;;;;;5076843;28;20125;-93
2024/03/01 10:00:29;;;;;;;21.23;10.18;;;9.10;92.20;;;;;;5046599;28;20036;-93
2024/03/01 10:03:14;;;;;;;20.00;10.90;;;9.10;92.40;;;;;;5043173;28;20844;-93
2024/03/01 10:06:01;;;;;;;16.58;10.13;;;9.30;91.50;;;;;;5062762;28;20036;-89
2024/03/01 10:08:55;;;;;;;16.33;8.23;;;9.40;89.50;;;;;;5089356;22;20071;-92
2024/03/01 10:11:39;;;;;;;18.65;9.48;;;9.40;90.70;;;;;;5070398;28;20046;-93
2024/03/01 10:14:23;;;;;;;17.40;8.85;;;9.30;90.20;;;;;;5066817;28;20387;-93
2024/03/01 10:17:04;;;;;;;16.90;9.25;;;9.30;90.20;;;;;;5055610;28;20147;-94
2024/03/01 10:19:33;;;;;;;17.45;7.90;;;9.30;90.20;;;;;;5066085;28;20036;-94
2024/03/01 10:22:13;;;;;;;19.95;7.68;;;9.40;90.10;;;;;;5026727;28;20024;-93
2024/03/01 10:25:15;;;;;;;16.35;7.72;;;9.50;89.70;;;;;;5044389;28;20113;-93
2024/03/01 10:28:22;;;;;;;14.27;7.55;;;9.60;89.00;;;;;;5032181;28;20024;-94
2024/03/01 10:30:59;;;;;;;15.35;8.40;;;9.30;89.10;;;;;;5019709;28;20056;-94
2024/03/01 10:33:46;;;;;;;13.90;7.30;;;9.30;91.10;;;;;;5058312;28;20063;-93
2024/03/01 10:36:34;;;;;;;18.40;6.53;;;9.40;92.00;;;;;;5056469;28;20025;-92
2024/03/01 10:39:09;;;;;;;9.85;3.78;;;9.30;89.70;;;;;;5069859;23;20053;-93
2024/03/01 10:41:59;;;;;;;8.68;3.97;;;9.20;89.30;;;;;;5049698;28;20032;-94
2024/03/01 10:45:12;;;;;;;8.68;4.22;;;9.20;90.20;;;;;;5047681;28;20131;-93
2024/03/01 10:47:45;;;;;;;7.15;3.63;;;9.20;89.90;;;;;;4945222;28;20030;-90
2024/03/01 10:50:19;;;;;;;7.70;4.57;;;9.20;88.80;;;;;;5016170;28;20037;-93
2024/03/01 10:53:07;;;;;;;9.00;3.75;;;9.20;89.90;;;;;;5029632;28;20107;-92
2024/03/01 10:56:12;;;;;;;7.50;3.83;;;9.10;89.30;;;;;;5037415;28;20029;-93
2024/03/01 10:59:18;;;;;;;6.72;3.30;;;8.90;88.90;;;;;;4974488;28;20046;-92
2024/03/01 11:01:58;;;;;;;6.97;5.50;;;8.90;89.50;;;;;;5020308;28;20137;-92
2024/03/01 11:05:07;;;;;;;8.32;3.88;;;8.80;89.40;;;;;;5028339;28;20040;-95
2024/03/01 11:07:47;;;;;;;7.65;3.70;;;8.70;88.60;;;;;;5039553;28;20033;-92
2024/03/01 11:10:30;;;;;;;9.63;3.88;;;8.70;89.10;;;;;;5075367;22;20048;-93
2024/03/01 11:13:04;;;;;;;6.82;4.57;;;8.60;89.40;;;;;;5073885;28;20455;-92
2024/03/01 11:15:34;;;;;;;10.02;6.65;;;8.60;89.20;;;;;;5060481;28;20158;-93
2024/03/01 11:18:06;;;;;;;4.80;2.80;;;8.60;89.20;;;;;;5069082;28;20054;-93
2024/03/01 11:20:57;;;;;;;7.03;3.75;;;8.60;89.60;;;;;;5055806;28;20099;-91
2024/03/01 11:23:43;;;;;;;7.20;3.92;;;8.60;88.90;;;;;;5075120;28;20050;-94
2024/03/01 11:26:19;;;;;;;7.55;3.45;;;8.60;89.70;;;;;;5078693;28;20039;-95
2024/03/01 11:29:11;;;;;;;7.45;6.20;;;8.70;88.90;;;;;;5073798;28;20016;-93
2024/03/01 11:31:42;;;;;;;5.10;3.10;;;8.60;89.30;;;;;;5079574;28;20100;-93
2024/03/01 11:34:44;;;;;;;5.85;4.75;;;8.70;89.60;;;;;;5061921;28;20028;-93
2024/03/01 11:37:22;;;;;;;6.05;2.85;;;8.60;88.30;;;;;;5035592;28;20044;-92
2024/03/01 11:40:14;;;;;;;6.28;4.35;;;8.60;88.00;;;;;;5063218;23;20174;-93
2024/03/01 11:43:07;;;;;;;4.80;3.55;;;8.70;88.60;;;;;;5039839;28;20279;-93
2024/03/01 11:45:45;;;;;;;7.20;3.30;;;8.70;88.80;;;;;;5049836;28;20028;-93
2024/03/01 11:48:23;;;;;;;4.88;3.33;;;8.80;87.70;;;;;;5036252;28;20483;-93
2024/03/01 11:50:57;;;;;;;4.65;3.47;;;8.80;87.50;;;;;;5016866;28;20049;-92
2024/03/01 11:53:24;;;;;;;9.65;8.80;;;8.70;87.30;;;;;;5032507;28;20391;-92
2024/03/01 11:56:27;;;;;;;5.72;3.92;;;8.70;87.60;;;;;;5031310;28;20263;-92
2024/03/01 11:59:21;;;;;;;5.72;3.63;;;8.80;87.30;;;;;;5017815;28;20055;-91
2024/03/01 12:02:06;;;;;;;4.13;2.78;;;8.80;86.50;;;;;;5036386;28;20044;-93
2024/03/01 12:05:06;;;;;;;7.63;5.50;;;8.80;87.20;;;;;;5028123;28;20033;-93
2024/03/01 12:07:43;;;;;;;;;;;8.80;86.50;;;;;;5032066;28;20076;-93
2024/03/01 12:12:48;;;;;;;4.53;3.80;;;8.90;86.00;;;;;;4869798;26;20051;-92
2024/03/01 12:15:35;;;;;;;3.92;1.73;;;8.90;85.70;;;;;;5050660;28;20031;-92
2024/03/01 12:18:04;;;;;;;4.00;2.70;;;8.90;86.00;;;;;;5052917;28;20124;-91
2024/03/01 12:21:10;;;;;;;5.32;2.10;;;9.00;84.90;;;;;;5038690;28;20058;-93
2024/03/01 12:24:04;;;;;;;5.18;2.47;;;9.10;85.20;;;;;;4943822;28;20042;-93
2024/03/01 12:26:52;;;;;;;6.22;2.55;;;9.20;84.10;;;;;;5054070;28;20041;-93
2024/03/01 12:29:26;;;;;;;3.63;2.10;;;9.20;84.50;;;;;;5057748;28;20974;-93
2024/03/01 12:32:22;;;;;;;5.38;2.35;;;9.30;84.20;;;;;;5051035;28;20406;-91
2024/03/01 12:35:07;;;;;;;2.90;1.80;;;9.60;82.70;;;;;;5047837;28;20313;-94
2024/03/01 12:37:50;;;;;;;4.68;4.28;;;9.60;82.80;;;;;;5060437;28;20206;-93
2024/03/01 12:40:18;;;;;;;3.58;1.55;;;9.70;81.80;;;;;;5175609;23;20536;-94
2024/03/01 12:43:07;;;;;;;2.22;1.75;;;9.90;80.90;;;;;;5028617;28;20032;-93
2024/03/01 12:46:02;;;;;;;2.28;1.63;;;9.80;79.70;;;;;;5013108;28;20494;-93
2024/03/01 12:48:46;;;;;;;5.85;2.30;;;9.70;80.00;;;;;;5021698;28;20028;-92
2024/03/01 12:51:21;;;;;;;5.10;2.58;;;9.90;80.30;;;;;;5013682;28;20033;-94
2024/03/01 12:54:07;;;;;;;3.38;1.83;;;9.90;80.20;;;;;;5020168;28;20036;-94
2024/03/01 12:57:02;;;;;;;3.72;2.13;;;10.00;81.10;;;;;;5036428;28;20055;-92
2024/03/01 13:00:15;;;;;;;5.60;2.63;;;9.90;81.20;;;;;;5016975;28;20040;-94
2024/03/01 13:03:13;;;;;;;5.88;3.03;;;9.80;80.40;;;;;;5037275;28;20043;-93
2024/03/01 13:05:54;;;;;;;4.57;1.73;;;9.90;80.40;;;;;;5005982;28;20036;-93